Time;durP1;ratioP1;P1;durP2;ratioP2;P2;SDS_P1;SDS_P2;PMS_P1;PMS_P2;Temp;Humidity;BMP_temperature;BMP_pressure;BME280_temperature;BME280_humidity;BME280_pressure;Samples;Min_cycle;Max_cycle;Signal;HPM_P1;HPM_P2
2023/03/17 00:01:49;;;;;;;;;;;5.80;84.20;;;-151.14;100.00;62537.16;5035701;28;19963;-83
2023/03/17 00:04:18;;;;;;;;;;;5.80;84.20;;;-151.14;100.00;62537.16;5069211;28;20116;-83
2023/03/17 00:06:46;;;;;;;;;;;5.80;84.30;;;-151.14;100.00;62537.16;5052079;28;19943;-84
2023/03/17 00:09:14;;;;;;;;;;;5.80;84.90;;;-151.14;100.00;62537.16;5053047;28;19927;-83
2023/03/17 00:11:42;;;;;;;;;;;5.80;84.10;;;-151.14;100.00;62537.16;5035692;28;19921;-83
2023/03/17 00:14:10;;;;;;;;;;;5.80;84.10;;;-151.14;100.00;62537.16;5053384;28;19924;-83
2023/03/17 00:16:41;;;;;;;;;;;5.80;84.00;;;-151.14;100.00;62537.16;5053196;28;20226;-83
2023/03/17 00:19:11;;;;;;;;;;;5.80;84.00;;;-151.14;100.00;62537.16;5051681;28;19921;-83
2023/03/17 00:21:39;;;;;;;;;;;5.80;84.00;;;-151.14;100.00;62537.16;5035418;28;19927;-83
2023/03/17 00:24:10;;;;;;;;;;;5.80;83.90;;;-151.14;100.00;62537.16;5053179;28;19920;-84
2023/03/17 00:26:38;;;;;;;;;;;5.80;83.90;;;-151.14;100.00;62537.16;5035165;28;19921;-83
2023/03/17 00:29:07;;;;;;;;;;;5.80;84.00;;;-151.14;100.00;62537.16;5018678;28;19921;-83
2023/03/17 00:31:35;;;;;;;;;;;5.80;84.00;;;-151.14;100.00;62537.16;5051657;28;19943;-84
2023/03/17 00:34:04;;;;;;;;;;;5.80;84.10;;;-151.14;100.00;62537.16;5035423;28;19921;-84
2023/03/17 00:36:33;;;;;;;;;;;5.80;84.10;;;-151.14;100.00;62537.16;5034967;28;20234;-83
2023/03/17 00:39:04;;;;;;;;;;;5.80;84.20;;;-151.14;100.00;62537.16;5051411;28;19925;-83
2023/03/17 00:41:32;;;;;;;;;;;5.80;84.10;;;-151.14;100.00;62537.16;5068517;28;20204;-83
2023/03/17 00:44:00;;;;;;;;;;;5.80;84.10;;;-151.14;100.00;62537.16;5035208;28;19920;-83
2023/03/17 00:46:34;;;;;;;;;;;5.80;84.10;;;-151.14;100.00;62537.16;5052845;28;19928;-83
2023/03/17 00:49:04;;;;;;;;;;;5.80;84.10;;;-151.14;100.00;62537.16;5034522;28;19991;-83
2023/03/17 00:51:32;;;;;;;;;;;5.80;84.00;;;-151.14;100.00;62537.16;5052725;28;19927;-83
2023/03/17 00:54:00;;;;;;;;;;;5.80;84.00;;;-151.14;100.00;62537.16;5052424;28;19928;-84
2023/03/17 00:56:28;;;;;;;;;;;5.80;84.00;;;-151.14;100.00;62537.16;5052713;28;19931;-84
2023/03/17 00:58:56;;;;;;;;;;;5.80;84.10;;;-151.14;100.00;62537.16;5034538;28;20124;-83
2023/03/17 01:01:24;;;;;;;;;;;5.80;84.00;;;-151.14;100.00;62537.16;5052693;28;19927;-84
2023/03/17 01:03:52;;;;;;;;;;;5.80;84.00;;;-151.14;100.00;62537.16;5052346;28;19927;-83
2023/03/17 01:06:22;;;;;;;;;;;5.80;84.00;;;-151.14;100.00;62537.16;5034400;28;20120;-84
2023/03/17 01:08:51;;;;;;;;;;;5.80;84.00;;;-151.14;100.00;62537.16;5034035;28;19935;-83
2023/03/17 01:11:19;;;;;;;;;;;5.80;83.90;;;-151.14;100.00;62537.16;5034845;28;19927;-83
2023/03/17 01:13:48;;;;;;;;;;;5.80;83.70;;;-151.14;100.00;62537.16;5034633;28;19927;-83
2023/03/17 01:16:16;;;;;;;;;;;5.80;83.80;;;-151.14;100.00;62537.16;5034764;28;19927;-84
2023/03/17 01:18:44;;;;;;;;;;;5.80;83.80;;;-151.14;100.00;62537.16;5051849;28;20113;-83
2023/03/17 01:21:12;;;;;;;;;;;5.80;83.80;;;-151.14;100.00;62537.16;5051188;28;19929;-84
2023/03/17 01:23:42;;;;;;;;;;;5.80;83.80;;;-151.14;100.00;62537.16;5052021;28;19935;-83
2023/03/17 01:26:10;;;;;;;;;;;5.80;83.90;;;-151.14;100.00;62537.16;5034843;28;20231;-84
2023/03/17 01:28:38;;;;;;;;;;;5.80;83.90;;;-151.14;100.00;62537.16;5050490;28;19920;-84
2023/03/17 01:31:06;;;;;;;;;;;5.80;83.90;;;-151.14;100.00;62537.16;5034563;28;19927;-83
2023/03/17 01:33:34;;;;;;;;;;;5.80;83.90;;;-151.14;100.00;62537.16;5034456;28;19920;-83
2023/03/17 01:36:02;;;;;;;;;;;5.80;84.00;;;-151.14;100.00;62537.16;5067837;28;19920;-83
2023/03/17 01:38:31;;;;;;;;;;;5.80;84.00;;;-151.14;100.00;62537.16;5033733;28;19927;-83
2023/03/17 01:41:02;;;;;;;;;;;5.80;83.80;;;-151.14;100.00;62537.16;5034566;28;19921;-83
2023/03/17 01:43:30;;;;;;;;;;;5.80;83.70;;;-151.14;100.00;62537.16;5033941;28;19957;-82
2023/03/17 01:46:24;;;;;;;;;;;5.70;83.60;;;-151.14;100.00;62537.16;5034309;28;19927;-83
2023/03/17 01:49:05;;;;;;;;;;;5.80;83.70;;;-151.14;100.00;62537.16;5033584;28;20252;-83
2023/03/17 01:51:36;;;;;;;;;;;5.70;83.70;;;-151.14;100.00;62537.16;5034158;28;19921;-83
2023/03/17 01:54:07;;;;;;;;;;;5.70;83.60;;;-151.14;100.00;62537.16;5034036;28;19928;-83
2023/03/17 01:56:36;;;;;;;;;;;5.80;83.60;;;-151.14;100.00;62537.16;5017857;28;19927;-83
2023/03/17 01:59:05;;;;;;;;;;;5.80;83.70;;;-151.14;100.00;62537.16;5016791;28;20097;-83
2023/03/17 02:01:36;;;;;;;;;;;5.70;83.60;;;-151.14;100.00;62537.16;5033905;28;19927;-83
2023/03/17 02:04:05;;;;;;;;;;;5.70;83.70;;;-151.14;100.00;62537.16;5067451;28;19921;-83
2023/03/17 02:06:33;;;;;;;;;;;5.70;83.80;;;-151.14;100.00;62537.16;5034142;28;20257;-83
2023/03/17 02:09:01;;;;;;;;;;;5.70;83.90;;;-151.14;100.00;62537.16;5033140;28;19943;-83
2023/03/17 02:11:29;;;;;;;;;;;5.70;83.70;;;-151.14;100.00;62537.16;5017595;28;19921;-83
2023/03/17 02:13:58;;;;;;;;;;;5.70;83.80;;;-151.14;100.00;62537.16;5017262;28;19927;-83
2023/03/17 02:16:26;;;;;;;;;;;5.70;83.80;;;-151.14;100.00;62537.16;5067169;28;19921;-83
2023/03/17 02:18:54;;;;;;;;;;;5.70;83.80;;;-151.14;100.00;62537.16;5015870;28;19921;-83
2023/03/17 02:21:39;;;;;;;;;;;5.70;83.70;;;-151.14;100.00;62537.16;5049839;28;20276;-83
2023/03/17 02:24:12;;;;;;;;;;;5.70;83.80;;;-151.14;100.00;62537.16;5066745;28;20228;-83
2023/03/17 02:26:40;;;;;;;;;;;5.70;83.70;;;-151.14;100.00;62537.16;5051483;28;19921;-83
2023/03/17 02:29:11;;;;;;;;;;;5.70;83.70;;;-151.14;100.00;62537.16;5032923;28;19921;-83
2023/03/17 02:31:42;;;;;;;;;;;5.70;83.70;;;-151.14;100.00;62537.16;5066732;28;19921;-83
2023/03/17 02:34:10;;;;;;;;;;;5.70;83.60;;;-151.14;100.00;62537.16;5033272;28;20208;-83
2023/03/17 02:36:40;;;;;;;;;;;5.70;83.70;;;-151.14;100.00;62537.16;5017230;28;19921;-83
2023/03/17 02:39:09;;;;;;;;;;;5.70;83.70;;;-151.14;100.00;62537.16;5066136;28;19921;-83
2023/03/17 02:41:37;;;;;;;;;;;5.70;83.60;;;-151.14;100.00;62537.16;5050100;28;19921;-83
2023/03/17 02:44:06;;;;;;;;;;;5.70;83.60;;;-151.14;100.00;62537.16;5049819;28;19921;-83
2023/03/17 02:46:34;;;;;;;;;;;5.70;83.70;;;-151.14;100.00;62537.16;5066738;28;20116;-83
2023/03/17 02:49:02;;;;;;;;;;;5.70;83.50;;;-151.14;100.00;62537.16;5032856;28;19928;-83
2023/03/17 02:51:30;;;;;;;;;;;5.70;83.60;;;-151.14;100.00;62537.16;5033272;28;19935;-83
2023/03/17 02:54:00;;;;;;;;;;;5.70;83.60;;;-151.14;100.00;62537.16;5049656;28;19921;-83
2023/03/17 02:56:28;;;;;;;;;;;5.70;83.60;;;-151.14;100.00;62537.16;5066362;28;19935;-83
2023/03/17 02:58:56;;;;;;;;;;;5.70;83.80;;;-151.14;100.00;62537.16;5032616;28;19921;-83
2023/03/17 03:01:25;;;;;;;;;;;5.70;83.60;;;-151.14;100.00;62537.16;5033209;28;20239;-83
2023/03/17 03:03:53;;;;;;;;;;;5.70;83.60;;;-151.14;100.00;62537.16;5033327;28;19927;-83
2023/03/17 03:06:22;;;;;;;;;;;5.70;83.60;;;-151.14;100.00;62537.16;5050927;28;19920;-83
2023/03/17 03:08:50;;;;;;;;;;;5.70;83.50;;;-151.14;100.00;62537.16;5032752;28;20160;-83
2023/03/17 03:11:19;;;;;;;;;;;5.70;83.50;;;-151.14;100.00;62537.16;5049543;28;19921;-83
2023/03/17 03:13:47;;;;;;;;;;;5.70;83.40;;;-151.14;100.00;62537.16;5016318;28;19943;-83
2023/03/17 03:16:15;;;;;;;;;;;5.70;83.50;;;-151.14;100.00;62537.16;5033091;28;19921;-83
2023/03/17 03:18:43;;;;;;;;;;;5.70;83.40;;;-151.14;100.00;62537.16;5048927;28;20121;-83
2023/03/17 03:21:12;;;;;;;;;;;5.70;83.50;;;-151.14;100.00;62537.16;5016713;28;19921;-83
2023/03/17 03:23:40;;;;;;;;;;;5.70;83.50;;;-151.14;100.00;62537.16;5049402;28;19921;-83
2023/03/17 03:26:08;;;;;;;;;;;5.70;83.50;;;-151.14;100.00;62537.16;5050308;28;19924;-83
2023/03/17 03:28:37;;;;;;;;;;;5.70;83.50;;;-151.14;100.00;62537.16;5033105;28;19921;-83
2023/03/17 03:31:06;;;;;;;;;;;5.70;83.50;;;-151.14;100.00;62537.16;5069670;28;19935;-83
2023/03/17 03:33:34;;;;;;;;;;;5.70;83.40;;;-151.14;100.00;62537.16;5019608;28;19927;-83
2023/03/17 03:36:02;;;;;;;;;;;5.70;83.50;;;-151.14;100.00;62537.16;5036012;28;19927;-83
2023/03/17 03:38:30;;;;;;;;;;;5.70;83.40;;;-151.14;100.00;62537.16;5035904;28;19920;-83
2023/03/17 03:40:58;;;;;;;;;;;5.70;83.40;;;-151.14;100.00;62537.16;5035983;28;19943;-83
2023/03/17 03:43:26;;;;;;;;;;;5.60;83.30;;;-151.14;100.00;62537.16;5035681;28;19920;-83
2023/03/17 03:45:55;;;;;;;;;;;5.70;83.50;;;-151.14;100.00;62537.16;5018649;28;19921;-83
2023/03/17 03:48:23;;;;;;;;;;;5.60;83.40;;;-151.14;100.00;62537.16;5034917;28;20098;-83
2023/03/17 03:50:52;;;;;;;;;;;5.70;83.50;;;-151.14;100.00;62537.16;5053725;28;20097;-83
2023/03/17 03:53:20;;;;;;;;;;;5.60;83.40;;;-151.14;100.00;62537.16;5035384;28;19921;-83
2023/03/17 03:55:48;;;;;;;;;;;5.60;83.30;;;-151.14;100.00;62537.16;5019527;28;19927;-83
2023/03/17 03:58:16;;;;;;;;;;;5.60;83.40;;;-151.14;100.00;62537.16;5051969;28;19921;-83
2023/03/17 04:00:44;;;;;;;;;;;5.60;83.30;;;-151.14;100.00;62537.16;5035834;28;20208;-83
2023/03/17 04:03:13;;;;;;;;;;;5.60;83.30;;;-151.14;100.00;62537.16;5035526;28;19921;-83
2023/03/17 04:05:42;;;;;;;;;;;5.60;83.30;;;-151.14;100.00;62537.16;5019320;28;19927;-83
2023/03/17 04:08:10;;;;;;;;;;;5.60;83.40;;;-151.14;100.00;62537.16;5051949;28;19927;-83
2023/03/17 04:10:38;;;;;;;;;;;5.60;83.30;;;-151.14;100.00;62537.16;5035355;28;19931;-83
2023/03/17 04:13:07;;;;;;;;;;;5.60;83.40;;;-151.14;100.00;62537.16;5019063;28;19921;-83
2023/03/17 04:15:35;;;;;;;;;;;5.60;83.30;;;-151.14;100.00;62537.16;5053191;28;19927;-83
2023/03/17 04:18:04;;;;;;;;;;;5.60;83.30;;;-151.14;100.00;62537.16;5035106;28;19921;-83
2023/03/17 04:20:33;;;;;;;;;;;5.60;83.40;;;-151.14;100.00;62537.16;5051842;28;19925;-83
2023/03/17 04:23:01;;;;;;;;;;;5.60;83.50;;;-151.14;100.00;62537.16;5018909;28;19925;-83
2023/03/17 04:25:29;;;;;;;;;;;5.60;83.30;;;-151.14;100.00;62537.16;5035399;28;19921;-83
2023/03/17 04:27:57;;;;;;;;;;;5.60;83.30;;;-151.14;100.00;62537.16;5051382;28;19921;-83
2023/03/17 04:30:25;;;;;;;;;;;5.60;83.30;;;-151.14;100.00;62537.16;5018898;28;19921;-83
2023/03/17 04:32:53;;;;;;;;;;;5.60;83.20;;;-151.14;100.00;62537.16;5053105;28;19920;-82
2023/03/17 04:35:21;;;;;;;;;;;5.60;83.20;;;-151.14;100.00;62537.16;5034952;28;19920;-83
2023/03/17 04:37:51;;;;;;;;;;;5.60;83.20;;;-151.14;100.00;62537.16;5051404;28;20234;-82
2023/03/17 04:40:19;;;;;;;;;;;5.60;83.30;;;-151.14;100.00;62537.16;5034379;28;19927;-83
2023/03/17 04:42:47;;;;;;;;;;;5.60;83.30;;;-151.14;100.00;62537.16;5018644;28;19921;-83
2023/03/17 04:45:15;;;;;;;;;;;5.60;83.30;;;-151.14;100.00;62537.16;5052753;28;19921;-83
2023/03/17 04:47:44;;;;;;;;;;;5.60;83.30;;;-151.14;100.00;62537.16;5034643;28;19929;-82
2023/03/17 04:50:12;;;;;;;;;;;5.70;83.20;;;-151.14;100.00;62537.16;5052430;28;19921;-83
2023/03/17 04:52:40;;;;;;;;;;;5.80;82.90;;;-151.14;100.00;62537.16;5018695;28;19921;-82
2023/03/17 04:55:10;;;;;;;;;;;5.80;82.40;;;-151.14;100.00;62537.16;5053011;28;19928;-82
2023/03/17 04:57:39;;;;;;;;;;;5.80;82.10;;;-151.14;100.00;62537.16;5018260;28;20051;-83
2023/03/17 05:00:08;;;;;;;;;;;5.80;82.20;;;-151.14;100.00;62537.16;5034842;28;20113;-82
2023/03/17 05:02:37;;;;;;;;;;;5.80;82.30;;;-151.14;100.00;62537.16;5068013;28;20112;-82
2023/03/17 05:05:05;;;;;;;;;;;5.80;82.20;;;-151.14;100.00;62537.16;5052566;28;19931;-82
2023/03/17 05:07:33;;;;;;;;;;;5.80;82.40;;;-151.14;100.00;62537.16;5034428;28;19921;-82
2023/03/17 05:10:02;;;;;;;;;;;5.90;82.20;;;-151.14;100.00;62537.16;5034651;28;19943;-82
2023/03/17 05:12:31;;;;;;;;;;;5.90;82.50;;;-151.14;100.00;62537.16;5067954;28;19925;-82
2023/03/17 05:14:59;;;;;;;;;;;6.10;82.50;;;-151.14;100.00;62537.16;5051360;28;19921;-83
2023/03/17 05:17:27;;;;;;;;;;;6.40;81.70;;;-151.14;100.00;62537.16;5017908;28;19920;-82
2023/03/17 05:19:55;;;;;;;;;;;6.50;80.70;;;-151.14;100.00;62537.16;5052205;28;20123;-82
2023/03/17 05:22:23;;;;;;;;;;;6.60;79.60;;;-151.14;100.00;62537.16;5034743;28;20090;-82
2023/03/17 05:24:51;;;;;;;;;;;6.60;79.20;;;-151.14;100.00;62537.16;5034670;28;19927;-83
2023/03/17 05:27:19;;;;;;;;;;;6.50;79.20;;;-151.14;100.00;62537.16;5017904;28;20120;-83
2023/03/17 05:29:48;;;;;;;;;;;6.60;79.80;;;-151.14;100.00;62537.16;5067352;28;19921;-83
2023/03/17 05:32:17;;;;;;;;;;;6.80;79.80;;;-151.14;100.00;62537.16;5050505;28;19927;-82
2023/03/17 05:34:45;;;;;;;;;;;7.10;79.30;;;-151.14;100.00;62537.16;5034305;28;19921;-83
2023/03/17 05:37:13;;;;;;;;;;;7.40;78.30;;;-151.14;100.00;62537.16;5034328;28;19925;-83
2023/03/17 05:39:41;;;;;;;;;;;7.90;77.10;;;-151.14;100.00;62537.16;5033787;28;20097;-83
2023/03/17 05:42:09;;;;;;;;;;;8.40;75.70;;;-151.14;100.00;62537.16;5034155;28;20139;-83
2023/03/17 05:44:37;;;;;;;;;;;8.90;74.10;;;-151.14;100.00;62537.16;5018151;28;19921;-83
2023/03/17 05:47:07;;;;;;;;;;;9.30;72.30;;;-151.14;100.00;62537.16;5034003;28;19927;-83
2023/03/17 05:49:35;;;;;;;;;;;9.80;70.60;;;-151.14;100.00;62537.16;5017350;28;19920;-83
2023/03/17 05:52:03;;;;;;;;;;;10.10;68.90;;;-151.14;100.00;62537.16;5034119;28;19921;-83
2023/03/17 05:54:31;;;;;;;;;;;10.50;67.40;;;-151.14;100.00;62537.16;5051860;28;19920;-83
2023/03/17 05:56:59;;;;;;;;;;;10.90;66.00;;;-151.14;100.00;62537.16;5034215;28;20212;-83
2023/03/17 05:59:27;;;;;;;;;;;11.10;64.80;;;-151.14;100.00;62537.16;5017214;28;20119;-83
2023/03/17 06:01:55;;;;;;;;;;;11.30;63.70;;;-151.14;100.00;62537.16;5033955;28;19921;-83
2023/03/17 06:04:25;;;;;;;;;;;11.50;62.80;;;-151.14;100.00;62537.16;5067305;28;20227;-83
2023/03/17 06:06:53;;;;;;;;;;;11.50;62.00;;;-151.14;100.00;62537.16;5017420;28;19921;-83
2023/03/17 06:09:21;;;;;;;;;;;11.50;61.20;;;-151.14;100.00;62537.16;5033118;28;20135;-83
2023/03/17 06:11:49;;;;;;;;;;;11.30;61.20;;;-151.14;100.00;62537.16;5033886;28;19921;-83
2023/03/17 06:14:18;;;;;;;;;;;10.90;61.90;;;-151.14;100.00;62537.16;5033868;28;19921;-83
2023/03/17 06:16:46;;;;;;;;;;;10.50;63.10;;;-151.14;100.00;62537.16;5017116;28;19927;-83
2023/03/17 06:19:14;;;;;;;;;;;10.10;64.60;;;-151.14;100.00;62537.16;5033423;28;19928;-83
2023/03/17 06:21:43;;;;;;;;;;;9.80;66.00;;;-151.14;100.00;62537.16;5033640;28;19920;-83
2023/03/17 06:24:11;;;;;;;;;;;9.50;67.40;;;-151.14;100.00;62537.16;5030397;28;19921;-83
2023/03/17 06:26:39;;;;;;;;;;;9.20;68.60;;;-151.14;100.00;62537.16;5030259;28;19921;-83
2023/03/17 06:29:08;;;;;;;;;;;9.00;69.80;;;6.52;100.00;62537.16;5031064;28;19921;-83
2023/03/17 06:31:36;;;;;;;;;;;8.80;70.80;;;-151.14;100.00;62537.16;5031031;28;19927;-83
2023/03/17 06:34:04;;;;;;;;;;;8.60;71.70;;;-151.14;100.00;62537.16;5013967;28;19921;-83
2023/03/17 06:36:32;;;;;;;;;;;8.40;72.50;;;-151.14;100.00;62537.16;5013594;28;19928;-83
2023/03/17 06:39:02;;;;;;;;;;;8.30;74.00;;;-151.14;100.00;62537.16;5013399;28;19921;-83
2023/03/17 06:41:30;;;;;;;;;;;8.20;73.80;;;-151.14;100.00;62537.16;5013550;28;19925;-82
2023/03/17 06:43:58;;;;;;;;;;;8.00;74.30;;;-151.14;100.00;62537.16;5030325;28;19921;-82
2023/03/17 06:46:26;;;;;;;;;;;7.90;74.80;;;-151.14;100.00;62537.16;5030109;28;20124;-83
2023/03/17 06:48:54;;;;;;;;;;;7.90;75.30;;;-151.14;100.00;62537.16;5029692;28;19928;-83
2023/03/17 06:51:22;;;;;;;;;;;7.80;75.50;;;-151.14;100.00;62537.16;5031066;28;19927;-83
2023/03/17 06:53:50;;;;;;;;;;;7.80;75.70;;;-151.14;100.00;62537.16;5031298;28;20229;-83
2023/03/17 06:56:20;;;;;;;;;;;7.70;76.00;;;-151.14;100.00;62537.16;5030957;28;19928;-83
2023/03/17 07:13:36;;;;;;;;;;;7.60;76.40;;;-151.14;100.00;62537.16;4345795;32;19901;-81
2023/03/17 07:16:04;;;;;;;;;;;7.50;77.60;;;-151.14;100.00;62537.16;5069176;28;34024;-82
2023/03/17 07:18:32;;;;;;;;;;;7.50;78.50;;;-151.14;100.00;62537.16;5070135;28;19926;-81
2023/03/17 07:21:01;;;;;;;;;;;7.50;77.80;;;6.26;100.00;62537.16;5086833;28;19920;-81
2023/03/17 07:23:29;;;;;;;;;;;7.50;77.90;;;-151.14;100.00;62537.16;5069661;28;19943;-81
2023/03/17 07:25:57;;;;;;;;;;;7.50;78.00;;;-151.14;100.00;62537.16;5070187;28;19927;-81
2023/03/17 07:28:25;;;;;;;;;;;7.50;78.10;;;-151.14;100.00;62537.16;5086745;28;20013;-81
2023/03/17 07:30:56;;;;;;;;;;;7.50;78.40;;;-151.14;100.00;62537.16;5070008;28;19927;-81
2023/03/17 07:33:24;;;;;;;;;;;7.50;78.40;;;-151.14;100.00;62537.16;5069032;28;19921;-81
2023/03/17 07:35:52;;;;;;;;;;;7.40;78.30;;;-151.14;100.00;62537.16;5069958;28;19920;-81
2023/03/17 07:38:21;;;;;;;;;;;7.40;78.40;;;-151.14;100.00;62537.16;5069828;28;19946;-82
2023/03/17 07:40:49;;;;;;;;;;;7.50;78.50;;;-151.14;100.00;62537.16;5069851;28;20115;-81
2023/03/17 07:43:17;;;;;;;;;;;7.40;78.30;;;-151.14;100.00;62537.16;5085773;28;19942;-81
2023/03/17 07:45:45;;;;;;;;;;;7.40;78.20;;;-151.14;100.00;62537.16;5086564;28;19920;-81
2023/03/17 07:48:15;;;;;;;;;;;7.40;78.10;;;-151.14;100.00;62537.16;5069448;28;20116;-81
2023/03/17 07:50:43;;;;;;;;;;;7.40;78.10;;;-151.14;100.00;62537.16;5087681;28;19920;-81
2023/03/17 07:53:11;;;;;;;;;;;7.40;78.00;;;-151.14;100.00;62537.16;5068878;28;20245;-81
2023/03/17 07:55:39;;;;;;;;;;;7.40;78.10;;;-151.14;100.00;62537.16;5086542;28;20202;-81
2023/03/17 07:58:08;;;;;;;;;;;7.40;78.10;;;-151.14;100.00;62537.16;5087231;28;19927;-81
2023/03/17 08:00:35;;;;;;;;;;;7.40;78.10;;;-151.14;100.00;62537.16;5069742;28;19942;-84
2023/03/17 08:03:04;;;;;;;;;;;7.40;78.10;;;-151.14;100.00;62537.16;5086651;28;19927;-84
2023/03/17 08:05:33;;;;;;;;;;;7.50;78.30;;;-151.14;100.00;62537.16;5069457;28;19920;-84
2023/03/17 08:08:01;;;;;;;;;;;7.50;78.20;;;-151.14;100.00;62537.16;5086178;28;19942;-84
2023/03/17 08:10:29;;;;;;;;;;;7.50;78.20;;;-151.14;100.00;62537.16;5069563;28;20216;-84
2023/03/17 08:12:57;;;;;;;;;;;7.50;78.10;;;-151.14;100.00;62537.16;5080383;28;19920;-84
2023/03/17 08:15:25;;;;;;;;;;;7.50;78.00;;;-151.14;100.00;62537.16;5072688;28;19920;-84
2023/03/17 08:17:53;;;;;;;;;;;7.50;78.00;;;-151.14;100.00;62537.16;5072598;28;19926;-83
2023/03/17 08:20:21;;;;;;;;;;;7.50;77.90;;;-151.14;100.00;62537.16;5055878;28;19927;-83
2023/03/17 08:22:51;;;;;;;;;;;7.50;77.90;;;-151.14;100.00;62537.16;5055072;28;19921;-84
2023/03/17 08:25:19;;;;;;;;;;;7.50;77.90;;;-151.14;100.00;62537.16;5072698;28;20212;-84
2023/03/17 08:27:47;;;;;;;;;;;7.50;77.90;;;-151.14;100.00;62537.16;5072574;28;20118;-84
2023/03/17 08:30:16;;;;;;;;;;;7.50;77.80;;;-151.14;100.00;62537.16;5072388;28;19944;-83
2023/03/17 08:32:44;;;;;;;;;;;7.50;78.00;;;-151.14;100.00;62537.16;5071870;28;19927;-84
2023/03/17 08:35:14;;;;;;;;;;;7.50;77.90;;;-151.14;100.00;62537.16;5055527;28;19920;-84
2023/03/17 08:37:42;;;;;;;;;;;7.50;77.90;;;-151.14;100.00;62537.16;5072234;28;19921;-84
2023/03/17 08:40:12;;;;;;;;;;;7.50;78.00;;;-151.14;100.00;62537.16;5055539;28;19920;-83
2023/03/17 08:42:40;;;;;;;;;;;7.50;78.10;;;-151.14;100.00;62537.16;5071643;28;19932;-83
2023/03/17 08:45:09;;;;;;;;;;;7.50;78.10;;;-151.14;100.00;62537.16;5055537;28;20119;-83
2023/03/17 08:47:38;;;;;;;;;;;7.50;78.10;;;-151.14;100.00;62537.16;5072138;28;19921;-84
2023/03/17 08:50:07;;;;;;;;;;;7.50;78.10;;;-151.14;100.00;62537.16;5055423;28;20207;-84
2023/03/17 08:52:35;;;;;;;;;;;7.50;78.20;;;-151.14;100.00;62537.16;5051492;28;19921;-83
2023/03/17 08:55:03;;;;;;;;;;;7.50;78.40;;;-151.14;100.00;62537.16;5035428;28;19927;-83
2023/03/17 08:57:32;;;;;;;;;;;7.50;78.50;;;-151.14;100.00;62537.16;5052012;28;20215;-81
2023/03/17 09:00:00;;;;;;;;;;;7.50;78.40;;;-151.14;100.00;62537.16;5051879;28;19921;-81
2023/03/17 09:02:28;;;;;;;;;;;7.40;78.30;;;-151.14;100.00;62537.16;5034696;28;19921;-81
2023/03/17 09:04:56;;;;;;;;;;;7.40;78.30;;;-151.14;100.00;62537.16;5051510;28;19927;-81
2023/03/17 09:07:24;;;;;;;;;;;7.40;78.50;;;-151.14;100.00;62537.16;5035244;28;19929;-81
2023/03/17 09:09:52;;;;;;;;;;;7.30;78.70;;;-151.14;100.00;62537.16;5035237;28;20124;-81
2023/03/17 09:12:21;;;;;;;;;;;7.30;78.90;;;-151.14;100.00;62537.16;5051265;28;19921;-81
2023/03/17 09:14:50;;;;;;;;;;;7.20;79.10;;;-151.14;100.00;62537.16;5035150;28;19921;-80
2023/03/17 09:17:18;;;;;;;;;;;7.20;79.20;;;-151.14;100.00;62537.16;5051794;28;20145;-81
2023/03/17 09:19:46;;;;;;;;;;;7.10;79.70;;;-151.14;100.00;62537.16;5051356;28;19927;-81
2023/03/17 09:22:14;;;;;;;;;;;7.10;79.70;;;-151.14;100.00;62537.16;5065583;28;19921;-81
2023/03/17 09:24:42;;;;;;;;;;;7.00;79.80;;;-151.14;100.00;62537.16;5053807;28;19931;-81
2023/03/17 09:27:11;;;;;;;;;;;7.00;79.90;;;-151.14;100.00;62537.16;5055037;28;19927;-83
2023/03/17 09:29:39;;;;;;;;;;;7.00;80.00;;;-151.14;100.00;62537.16;5071469;28;19920;-84
2023/03/17 09:32:09;;;;;;;;;;;6.90;80.20;;;-151.14;100.00;62537.16;5070953;28;19920;-84
2023/03/17 09:34:37;;;;;;;;;;;6.90;80.40;;;-151.14;100.00;62537.16;5054619;28;19921;-83
2023/03/17 09:37:05;;;;;;;;;;;6.90;80.50;;;-151.14;100.00;62537.16;5054547;28;20288;-84
2023/03/17 09:39:33;;;;;;;;;;;6.90;80.50;;;-151.14;100.00;62537.16;5054600;28;19921;-84
2023/03/17 09:42:08;;;;;;;;;;;6.90;80.60;;;-151.14;100.00;62537.16;5070415;28;19920;-83
2023/03/17 09:44:48;;;;;;;;;;;6.90;80.60;;;-151.14;100.00;62537.16;5072224;28;19927;-84
2023/03/17 09:47:28;;;;;;;;;;;6.90;80.60;;;-151.14;100.00;62537.16;5071346;28;19927;-84
2023/03/17 09:49:58;;;;;;;;;;;6.90;80.60;;;-151.14;100.00;62537.16;5071079;28;19942;-81
2023/03/17 09:52:28;;;;;;;;;;;6.90;80.70;;;-151.14;100.00;62537.16;5054014;28;19920;-81
2023/03/17 09:54:56;;;;;;;;;;;6.90;80.80;;;-151.14;100.00;62537.16;5070639;28;19921;-81
2023/03/17 09:57:26;;;;;;;;;;;6.80;80.80;;;-151.14;100.00;62537.16;5087995;28;19921;-81
2023/03/17 10:00:05;;;;;;;;;;;6.80;80.80;;;-151.14;100.00;62537.16;5054303;28;19927;-81
2023/03/17 10:02:37;;;;;;;;;;;6.80;80.80;;;-151.14;100.00;62537.16;5070030;28;19920;-82
2023/03/17 10:05:11;;;;;;;;;;;6.80;80.80;;;-151.14;100.00;62537.16;5054038;28;19927;-81
2023/03/17 10:07:41;;;;;;;;;;;6.80;80.70;;;-151.14;100.00;62537.16;5054066;28;20123;-82
2023/03/17 10:10:13;;;;;;;;;;;6.80;80.80;;;-151.14;100.00;62537.16;5070963;28;19920;-82
2023/03/17 10:12:45;;;;;;;;;;;6.80;80.80;;;-151.14;100.00;62537.16;5053429;28;20214;-81
2023/03/17 10:15:16;;;;;;;;;;;6.80;80.70;;;-151.14;100.00;62537.16;5053541;28;19921;-81
2023/03/17 10:17:46;;;;;;;;;;;6.80;80.60;;;-151.14;100.00;62537.16;5064122;28;19943;-81
2023/03/17 10:20:16;;;;;;;;;;;6.80;80.50;;;-151.14;100.00;62537.16;5071503;28;19921;-81
2023/03/17 10:22:46;;;;;;;;;;;6.90;80.70;;;-151.14;100.00;62537.16;5069817;28;19920;-82
2023/03/17 10:25:15;;;;;;;;;;;6.90;80.70;;;-151.14;100.00;62537.16;5053969;28;20211;-82
2023/03/17 10:27:45;;;;;;;;;;;6.90;80.60;;;5.61;100.00;62537.16;5070634;28;20121;-82
2023/03/17 10:30:16;;;;;;;;;;;6.90;80.50;;;-151.14;100.00;62537.16;5053822;28;20119;-81
2023/03/17 10:32:45;;;;;;;;;;;6.90;81.30;;;-151.14;100.00;62537.16;5070032;28;19978;-81
2023/03/17 10:48:38;;;;;;;;;;;6.90;80.40;;;-151.14;100.00;62537.16;4346158;32;19901;-83
2023/03/17 10:51:08;;;;;;;;;;;6.80;80.70;;;-151.14;100.00;62537.16;5069336;28;34183;-83
2023/03/17 10:53:37;;;;;;;;;;;6.80;80.80;;;-151.14;100.00;62537.16;5070058;28;20131;-83
2023/03/17 10:56:08;;;;;;;;;;;6.80;80.80;;;-151.14;100.00;62537.16;5086812;28;19925;-83
2023/03/17 10:58:37;;;;;;;;;;;6.80;80.80;;;5.48;100.00;62537.16;5087205;28;20096;-84
2023/03/17 11:01:07;;;;;;;;;;;6.70;81.00;;;-151.14;100.00;62537.16;5070443;28;19926;-83
2023/03/17 11:03:38;;;;;;;;;;;6.70;81.00;;;-151.14;100.00;62537.16;5069982;28;19921;-83
2023/03/17 11:06:08;;;;;;;;;;;6.70;81.10;;;-151.14;100.00;62537.16;5087908;28;19921;-83
2023/03/17 11:08:39;;;;;;;;;;;6.70;81.20;;;-151.14;100.00;62537.16;5069027;28;19926;-82
2023/03/17 11:11:09;;;;;;;;;;;6.70;81.30;;;-151.14;100.00;62537.16;5102899;28;19927;-83
2023/03/17 11:13:37;;;;;;;;;;;6.70;81.30;;;-151.14;100.00;62537.16;5086217;28;19927;-83
2023/03/17 11:16:09;;;;;;;;;;;6.60;81.40;;;-151.14;100.00;62537.16;5069709;28;19959;-82
2023/03/17 11:18:39;;;;;;;;;;;6.60;81.40;;;-151.14;100.00;62537.16;5069060;28;19943;-82
2023/03/17 11:21:09;;;;;;;;;;;6.60;81.50;;;-151.14;100.00;62537.16;5086505;28;19920;-83
2023/03/17 11:23:56;;;;;;;;;;;6.60;81.70;;;-151.14;100.00;62537.16;5087503;28;19925;-82
2023/03/17 11:26:42;;;;;;;;;;;6.60;81.60;;;-151.14;100.00;62537.16;5069703;28;20018;-83
2023/03/17 11:29:21;;;;;;;;;;;6.60;81.60;;;-151.14;100.00;62537.16;5069110;28;19927;-83
2023/03/17 11:31:54;;;;;;;;;;;6.60;82.40;;;-151.14;100.00;62537.16;5087491;28;19927;-83
2023/03/17 11:34:28;;;;;;;;;;;6.70;81.60;;;-151.14;100.00;62537.16;5086494;28;19925;-83
2023/03/17 11:36:59;;;;;;;;;;;6.70;81.50;;;-151.14;100.00;62537.16;5085779;28;20119;-83
2023/03/17 11:39:27;;;;;;;;;;;6.60;81.30;;;-151.14;100.00;62537.16;5069439;28;19927;-83